sensor_id;sensor_type;location;lat;lon;timestamp;temperature;humidity
7846;DHT22;3968;51.424;6.788;2023-07-24T00:01:59;18.90;99.90
7846;DHT22;3968;51.424;6.788;2023-07-24T00:04:24;19.00;99.90
7846;DHT22;3968;51.424;6.788;2023-07-24T00:06:50;18.90;99.90
7846;DHT22;3968;51.424;6.788;2023-07-24T00:09:15;18.90;99.90
7846;DHT22;3968;51.424;6.788;2023-07-24T00:11:41;18.90;99.90
7846;DHT22;3968;51.424;6.788;2023-07-24T00:14:07;18.90;99.90
7846;DHT22;3968;51.424;6.788;2023-07-24T00:16:32;18.90;99.90
7846;DHT22;3968;51.424;6.788;2023-07-24T00:18:58;18.80;99.90
7846;DHT22;3968;51.424;6.788;2023-07-24T00:21:23;18.90;99.90
7846;DHT22;3968;51.424;6.788;2023-07-24T00:23:49;18.80;99.90
7846;DHT22;3968;51.424;6.788;2023-07-24T00:26:14;18.80;99.90
7846;DHT22;3968;51.424;6.788;2023-07-24T00:28:40;18.80;99.90
7846;DHT22;3968;51.424;6.788;2023-07-24T00:31:06;18.70;99.90
7846;DHT22;3968;51.424;6.788;2023-07-24T00:33:31;18.70;99.90
7846;DHT22;3968;51.424;6.788;2023-07-24T00:35:57;18.70;99.90
7846;DHT22;3968;51.424;6.788;2023-07-24T00:38:23;18.80;99.90
7846;DHT22;3968;51.424;6.788;2023-07-24T00:40:49;18.80;99.90
7846;DHT22;3968;51.424;6.788;2023-07-24T00:43:15;18.70;99.90
7846;DHT22;3968;51.424;6.788;2023-07-24T00:45:42;18.70;99.90
7846;DHT22;3968;51.424;6.788;2023-07-24T00:48:09;18.80;99.90
7846;DHT22;3968;51.424;6.788;2023-07-24T00:50:36;18.80;99.90
7846;DHT22;3968;51.424;6.788;2023-07-24T00:53:02;18.70;99.90
7846;DHT22;3968;51.424;6.788;2023-07-24T00:55:29;18.70;99.90
7846;DHT22;3968;51.424;6.788;2023-07-24T00:57:56;18.60;99.90
7846;DHT22;3968;51.424;6.788;2023-07-24T01:00:22;18.70;99.90
7846;DHT22;3968;51.424;6.788;2023-07-24T01:02:48;18.60;99.90
7846;DHT22;3968;51.424;6.788;2023-07-24T01:05:14;18.70;99.90
7846;DHT22;3968;51.424;6.788;2023-07-24T01:07:42;18.70;99.90
7846;DHT22;3968;51.424;6.788;2023-07-24T01:10:08;18.60;99.90
7846;DHT22;3968;51.424;6.788;2023-07-24T01:15:11;18.60;99.90
7846;DHT22;3968;51.424;6.788;2023-07-24T01:17:43;18.50;99.90
7846;DHT22;3968;51.424;6.788;2023-07-24T01:20:11;18.60;99.90
7846;DHT22;3968;51.424;6.788;2023-07-24T01:22:55;18.60;99.90
7846;DHT22;3968;51.424;6.788;2023-07-24T01:25:33;18.50;99.90
7846;DHT22;3968;51.424;6.788;2023-07-24T01:28:08;18.50;99.90
7846;DHT22;3968;51.424;6.788;2023-07-24T01:30:34;18.50;99.90
7846;DHT22;3968;51.424;6.788;2023-07-24T01:33:00;18.60;99.90
7846;DHT22;3968;51.424;6.788;2023-07-24T01:35:26;18.50;99.90
7846;DHT22;3968;51.424;6.788;2023-07-24T01:37:54;18.50;99.90
7846;DHT22;3968;51.424;6.788;2023-07-24T01:40:21;18.50;99.90
7846;DHT22;3968;51.424;6.788;2023-07-24T01:42:48;18.50;99.90
7846;DHT22;3968;51.424;6.788;2023-07-24T01:45:15;18.40;99.90
7846;DHT22;3968;51.424;6.788;2023-07-24T01:47:40;18.50;99.90
7846;DHT22;3968;51.424;6.788;2023-07-24T01:50:06;18.50;99.90
7846;DHT22;3968;51.424;6.788;2023-07-24T01:52:32;18.50;99.90
7846;DHT22;3968;51.424;6.788;2023-07-24T01:54:58;18.40;99.90
7846;DHT22;3968;51.424;6.788;2023-07-24T01:57:24;18.50;99.90
7846;DHT22;3968;51.424;6.788;2023-07-24T01:59:49;18.40;99.90
7846;DHT22;3968;51.424;6.788;2023-07-24T02:02:15;18.40;99.90
7846;DHT22;3968;51.424;6.788;2023-07-24T02:04:40;18.50;99.90
7846;DHT22;3968;51.424;6.788;2023-07-24T02:07:06;18.50;99.90
7846;DHT22;3968;51.424;6.788;2023-07-24T02:09:31;18.50;99.90
7846;DHT22;3968;51.424;6.788;2023-07-24T02:11:57;18.40;99.90
7846;DHT22;3968;51.424;6.788;2023-07-24T02:14:23;18.50;99.90
7846;DHT22;3968;51.424;6.788;2023-07-24T02:16:49;18.50;99.90
7846;DHT22;3968;51.424;6.788;2023-07-24T02:19:15;18.50;99.90
7846;DHT22;3968;51.424;6.788;2023-07-24T02:21:40;18.50;99.90
7846;DHT22;3968;51.424;6.788;2023-07-24T02:24:06;18.50;99.90
7846;DHT22;3968;51.424;6.788;2023-07-24T02:26:32;18.50;99.90
7846;DHT22;3968;51.424;6.788;2023-07-24T02:28:57;18.60;99.90
7846;DHT22;3968;51.424;6.788;2023-07-24T02:31:23;18.50;99.90
7846;DHT22;3968;51.424;6.788;2023-07-24T02:33:48;18.50;99.90
7846;DHT22;3968;51.424;6.788;2023-07-24T02:36:15;18.60;99.90
7846;DHT22;3968;51.424;6.788;2023-07-24T02:38:40;18.60;99.90
7846;DHT22;3968;51.424;6.788;2023-07-24T02:41:06;18.60;99.90
7846;DHT22;3968;51.424;6.788;2023-07-24T02:43:31;18.60;99.90
7846;DHT22;3968;51.424;6.788;2023-07-24T02:46:01;18.60;99.90
7846;DHT22;3968;51.424;6.788;2023-07-24T02:48:27;18.60;99.90
7846;DHT22;3968;51.424;6.788;2023-07-24T02:50:52;18.60;99.90
7846;DHT22;3968;51.424;6.788;2023-07-24T02:53:18;18.60;99.90
7846;DHT22;3968;51.424;6.788;2023-07-24T02:55:44;18.70;99.90
7846;DHT22;3968;51.424;6.788;2023-07-24T02:58:11;18.70;99.90
7846;DHT22;3968;51.424;6.788;2023-07-24T03:00:37;18.60;99.90
7846;DHT22;3968;51.424;6.788;2023-07-24T03:03:03;18.60;99.90
7846;DHT22;3968;51.424;6.788;2023-07-24T03:05:29;18.70;99.90
7846;DHT22;3968;51.424;6.788;2023-07-24T03:07:55;18.70;99.90
7846;DHT22;3968;51.424;6.788;2023-07-24T03:10:20;18.60;99.90
7846;DHT22;3968;51.424;6.788;2023-07-24T03:12:46;18.60;99.90
7846;DHT22;3968;51.424;6.788;2023-07-24T03:15:11;18.70;99.90
7846;DHT22;3968;51.424;6.788;2023-07-24T03:17:37;18.70;99.90
7846;DHT22;3968;51.424;6.788;2023-07-24T03:20:13;18.70;99.90
7846;DHT22;3968;51.424;6.788;2023-07-24T03:22:40;18.70;99.90
7846;DHT22;3968;51.424;6.788;2023-07-24T03:25:07;18.60;99.90
7846;DHT22;3968;51.424;6.788;2023-07-24T03:27:33;18.70;99.90
7846;DHT22;3968;51.424;6.788;2023-07-24T03:29:58;18.70;99.90
7846;DHT22;3968;51.424;6.788;2023-07-24T03:32:24;18.60;99.90
7846;DHT22;3968;51.424;6.788;2023-07-24T03:34:49;18.70;99.90
7846;DHT22;3968;51.424;6.788;2023-07-24T03:37:15;18.70;99.90
7846;DHT22;3968;51.424;6.788;2023-07-24T03:39:40;18.60;99.90
7846;DHT22;3968;51.424;6.788;2023-07-24T03:42:06;18.70;99.90
7846;DHT22;3968;51.424;6.788;2023-07-24T03:44:32;18.60;99.90
7846;DHT22;3968;51.424;6.788;2023-07-24T03:46:57;18.60;99.90
7846;DHT22;3968;51.424;6.788;2023-07-24T03:49:23;18.70;99.90
7846;DHT22;3968;51.424;6.788;2023-07-24T03:51:48;18.70;99.90
7846;DHT22;3968;51.424;6.788;2023-07-24T03:54:14;18.70;99.90
7846;DHT22;3968;51.424;6.788;2023-07-24T03:56:39;18.70;99.90
7846;DHT22;3968;51.424;6.788;2023-07-24T03:59:06;18.70;99.90
7846;DHT22;3968;51.424;6.788;2023-07-24T04:01:31;18.60;99.90
7846;DHT22;3968;51.424;6.788;2023-07-24T04:03:58;18.70;99.90
7846;DHT22;3968;51.424;6.788;2023-07-24T04:06:24;18.60;99.90
7846;DHT22;3968;51.424;6.788;2023-07-24T04:08:49;18.70;99.90
7846;DHT22;3968;51.424;6.788;2023-07-24T04:11:15;18.70;99.90
7846;DHT22;3968;51.424;6.788;2023-07-24T04:13:41;18.70;99.90
7846;DHT22;3968;51.424;6.788;2023-07-24T04:16:06;18.70;99.90
7846;DHT22;3968;51.424;6.788;2023-07-24T04:18:32;18.60;99.90
7846;DHT22;3968;51.424;6.788;2023-07-24T04:20:58;18.70;99.90
7846;DHT22;3968;51.424;6.788;2023-07-24T04:23:24;18.70;99.90
7846;DHT22;3968;51.424;6.788;2023-07-24T04:25:50;18.60;99.90
7846;DHT22;3968;51.424;6.788;2023-07-24T04:28:15;18.60;99.90
7846;DHT22;3968;51.424;6.788;2023-07-24T04:30:41;18.70;99.90
7846;DHT22;3968;51.424;6.788;2023-07-24T04:33:06;18.70;99.90
7846;DHT22;3968;51.424;6.788;2023-07-24T04:35:32;18.60;99.90
7846;DHT22;3968;51.424;6.788;2023-07-24T04:37:58;18.60;99.90
7846;DHT22;3968;51.424;6.788;2023-07-24T04:40:24;18.70;99.90
7846;DHT22;3968;51.424;6.788;2023-07-24T04:42:49;18.60;99.90
7846;DHT22;3968;51.424;6.788;2023-07-24T04:45:15;18.60;99.90
7846;DHT22;3968;51.424;6.788;2023-07-24T04:47:40;18.60;99.90
7846;DHT22;3968;51.424;6.788;2023-07-24T04:50:07;18.60;99.90
7846;DHT22;3968;51.424;6.788;2023-07-24T04:52:33;18.60;99.90
7846;DHT22;3968;51.424;6.788;2023-07-24T04:54:58;18.60;99.90
7846;DHT22;3968;51.424;6.788;2023-07-24T04:57:24;18.60;99.90
7846;DHT22;3968;51.424;6.788;2023-07-24T04:59:49;18.60;99.90
7846;DHT22;3968;51.424;6.788;2023-07-24T05:02:15;18.60;99.90
7846;DHT22;3968;51.424;6.788;2023-07-24T05:04:41;18.60;99.90
7846;DHT22;3968;51.424;6.788;2023-07-24T05:07:07;18.60;99.90
7846;DHT22;3968;51.424;6.788;2023-07-24T05:09:32;18.70;99.90
7846;DHT22;3968;51.424;6.788;2023-07-24T05:11:58;18.70;99.90
7846;DHT22;3968;51.424;6.788;2023-07-24T05:14:23;18.60;99.90
7846;DHT22;3968;51.424;6.788;2023-07-24T05:16:49;18.70;99.90
7846;DHT22;3968;51.424;6.788;2023-07-24T05:19:14;18.70;99.90
7846;DHT22;3968;51.424;6.788;2023-07-24T05:21:40;18.70;99.90
7846;DHT22;3968;51.424;6.788;2023-07-24T05:24:06;18.70;99.90
7846;DHT22;3968;51.424;6.788;2023-07-24T05:26:31;18.70;99.90
7846;DHT22;3968;51.424;6.788;2023-07-24T05:28:57;18.80;99.90
7846;DHT22;3968;51.424;6.788;2023-07-24T05:31:22;18.80;99.90
7846;DHT22;3968;51.424;6.788;2023-07-24T05:33:48;18.80;99.90
7846;DHT22;3968;51.424;6.788;2023-07-24T05:36:14;18.80;99.90
7846;DHT22;3968;51.424;6.788;2023-07-24T05:38:39;18.80;99.90
7846;DHT22;3968;51.424;6.788;2023-07-24T05:41:05;18.90;99.90
7846;DHT22;3968;51.424;6.788;2023-07-24T05:43:31;18.90;99.90
7846;DHT22;3968;51.424;6.788;2023-07-24T05:45:58;18.90;99.90
7846;DHT22;3968;51.424;6.788;2023-07-24T05:48:24;18.90;99.90
7846;DHT22;3968;51.424;6.788;2023-07-24T05:50:50;18.90;99.90
7846;DHT22;3968;51.424;6.788;2023-07-24T05:53:17;19.00;99.90
7846;DHT22;3968;51.424;6.788;2023-07-24T05:55:42;19.00;99.90
7846;DHT22;3968;51.424;6.788;2023-07-24T05:58:09;19.10;99.90
7846;DHT22;3968;51.424;6.788;2023-07-24T06:00:35;19.20;99.90
7846;DHT22;3968;51.424;6.788;2023-07-24T06:03:02;19.30;99.90
7846;DHT22;3968;51.424;6.788;2023-07-24T06:05:28;19.20;99.90
7846;DHT22;3968;51.424;6.788;2023-07-24T06:07:53;19.40;99.90
7846;DHT22;3968;51.424;6.788;2023-07-24T06:10:19;19.20;99.90
7846;DHT22;3968;51.424;6.788;2023-07-24T06:12:45;19.30;99.90
7846;DHT22;3968;51.424;6.788;2023-07-24T06:15:10;19.30;99.90
7846;DHT22;3968;51.424;6.788;2023-07-24T06:17:36;19.20;99.90
7846;DHT22;3968;51.424;6.788;2023-07-24T06:20:01;19.20;99.90
7846;DHT22;3968;51.424;6.788;2023-07-24T06:22:27;19.20;99.90
7846;DHT22;3968;51.424;6.788;2023-07-24T06:24:53;19.20;99.90
7846;DHT22;3968;51.424;6.788;2023-07-24T06:27:18;19.20;99.90
7846;DHT22;3968;51.424;6.788;2023-07-24T06:29:44;19.30;99.90
7846;DHT22;3968;51.424;6.788;2023-07-24T06:32:09;19.30;99.90
7846;DHT22;3968;51.424;6.788;2023-07-24T06:34:35;19.30;99.90
7846;DHT22;3968;51.424;6.788;2023-07-24T06:37:01;19.30;99.90
7846;DHT22;3968;51.424;6.788;2023-07-24T06:39:26;19.30;99.90
7846;DHT22;3968;51.424;6.788;2023-07-24T06:41:54;19.20;99.90
7846;DHT22;3968;51.424;6.788;2023-07-24T06:44:20;19.20;99.90
7846;DHT22;3968;51.424;6.788;2023-07-24T06:46:46;19.30;99.90
7846;DHT22;3968;51.424;6.788;2023-07-24T06:49:12;19.30;99.90
7846;DHT22;3968;51.424;6.788;2023-07-24T06:51:38;19.40;99.90
7846;DHT22;3968;51.424;6.788;2023-07-24T06:54:06;19.40;99.90
7846;DHT22;3968;51.424;6.788;2023-07-24T06:56:32;19.50;99.90
7846;DHT22;3968;51.424;6.788;2023-07-24T06:58:58;19.40;99.90
7846;DHT22;3968;51.424;6.788;2023-07-24T07:01:23;19.50;99.90
7846;DHT22;3968;51.424;6.788;2023-07-24T07:03:49;19.70;99.90
7846;DHT22;3968;51.424;6.788;2023-07-24T07:06:15;19.70;99.90
7846;DHT22;3968;51.424;6.788;2023-07-24T07:08:41;19.80;99.90
7846;DHT22;3968;51.424;6.788;2023-07-24T07:11:06;19.80;99.90
7846;DHT22;3968;51.424;6.788;2023-07-24T07:13:32;19.80;99.90
7846;DHT22;3968;51.424;6.788;2023-07-24T07:15:58;19.90;99.90
7846;DHT22;3968;51.424;6.788;2023-07-24T07:18:23;19.80;99.90
7846;DHT22;3968;51.424;6.788;2023-07-24T07:20:50;19.80;99.90
7846;DHT22;3968;51.424;6.788;2023-07-24T07:23:17;19.80;99.90
7846;DHT22;3968;51.424;6.788;2023-07-24T07:25:43;19.70;99.90
7846;DHT22;3968;51.424;6.788;2023-07-24T07:28:14;19.80;99.90
7846;DHT22;3968;51.424;6.788;2023-07-24T07:30:41;19.70;99.90
7846;DHT22;3968;51.424;6.788;2023-07-24T07:33:07;19.80;99.90
7846;DHT22;3968;51.424;6.788;2023-07-24T07:35:34;19.80;99.90
7846;DHT22;3968;51.424;6.788;2023-07-24T07:38:00;19.70;99.90
7846;DHT22;3968;51.424;6.788;2023-07-24T07:40:26;19.70;99.90
7846;DHT22;3968;51.424;6.788;2023-07-24T07:42:55;19.80;99.90
7846;DHT22;3968;51.424;6.788;2023-07-24T07:45:22;19.80;99.90
7846;DHT22;3968;51.424;6.788;2023-07-24T07:47:47;19.80;99.90
7846;DHT22;3968;51.424;6.788;2023-07-24T07:50:13;19.80;99.90
7846;DHT22;3968;51.424;6.788;2023-07-24T07:52:39;19.80;99.90
7846;DHT22;3968;51.424;6.788;2023-07-24T07:55:05;19.90;99.90
7846;DHT22;3968;51.424;6.788;2023-07-24T07:57:37;19.90;99.90
7846;DHT22;3968;51.424;6.788;2023-07-24T08:00:03;19.90;99.90
7846;DHT22;3968;51.424;6.788;2023-07-24T08:02:29;20.00;99.90
7846;DHT22;3968;51.424;6.788;2023-07-24T08:04:57;20.10;99.90
7846;DHT22;3968;51.424;6.788;2023-07-24T08:07:23;20.10;99.90
7846;DHT22;3968;51.424;6.788;2023-07-24T08:09:48;20.10;99.90
7846;DHT22;3968;51.424;6.788;2023-07-24T08:12:14;20.30;99.90
7846;DHT22;3968;51.424;6.788;2023-07-24T08:14:40;20.30;99.90
7846;DHT22;3968;51.424;6.788;2023-07-24T08:17:05;20.40;99.90
7846;DHT22;3968;51.424;6.788;2023-07-24T08:19:31;20.50;99.90
7846;DHT22;3968;51.424;6.788;2023-07-24T08:21:57;20.60;99.90
7846;DHT22;3968;51.424;6.788;2023-07-24T08:24:22;20.70;99.90
7846;DHT22;3968;51.424;6.788;2023-07-24T08:26:48;20.60;99.90
7846;DHT22;3968;51.424;6.788;2023-07-24T08:29:14;20.60;99.90
7846;DHT22;3968;51.424;6.788;2023-07-24T08:31:39;20.50;99.90
7846;DHT22;3968;51.424;6.788;2023-07-24T08:34:05;20.40;99.90
7846;DHT22;3968;51.424;6.788;2023-07-24T08:36:30;20.40;99.90
7846;DHT22;3968;51.424;6.788;2023-07-24T08:38:56;20.50;99.90
7846;DHT22;3968;51.424;6.788;2023-07-24T08:41:21;20.50;99.90
7846;DHT22;3968;51.424;6.788;2023-07-24T08:43:47;20.50;99.90
7846;DHT22;3968;51.424;6.788;2023-07-24T08:46:15;20.60;99.90
7846;DHT22;3968;51.424;6.788;2023-07-24T08:48:42;20.70;99.90
7846;DHT22;3968;51.424;6.788;2023-07-24T08:51:08;20.70;99.90
7846;DHT22;3968;51.424;6.788;2023-07-24T08:53:38;20.80;99.90
7846;DHT22;3968;51.424;6.788;2023-07-24T08:56:05;20.80;99.90
7846;DHT22;3968;51.424;6.788;2023-07-24T08:58:31;20.90;99.90
7846;DHT22;3968;51.424;6.788;2023-07-24T09:00:57;21.00;99.90
7846;DHT22;3968;51.424;6.788;2023-07-24T09:03:23;21.00;99.90
7846;DHT22;3968;51.424;6.788;2023-07-24T09:05:49;20.80;99.90
7846;DHT22;3968;51.424;6.788;2023-07-24T09:08:14;20.90;99.90
7846;DHT22;3968;51.424;6.788;2023-07-24T09:10:40;20.90;99.90
7846;DHT22;3968;51.424;6.788;2023-07-24T09:13:06;20.90;99.90
7846;DHT22;3968;51.424;6.788;2023-07-24T09:15:44;21.10;99.90
7846;DHT22;3968;51.424;6.788;2023-07-24T09:18:10;21.20;99.90
7846;DHT22;3968;51.424;6.788;2023-07-24T09:20:40;21.20;99.90
7846;DHT22;3968;51.424;6.788;2023-07-24T09:23:07;21.20;99.90
7846;DHT22;3968;51.424;6.788;2023-07-24T09:25:35;21.20;99.90
7846;DHT22;3968;51.424;6.788;2023-07-24T09:28:08;21.20;99.90
7846;DHT22;3968;51.424;6.788;2023-07-24T09:30:34;21.10;99.90
7846;DHT22;3968;51.424;6.788;2023-07-24T09:32:59;21.00;99.90
7846;DHT22;3968;51.424;6.788;2023-07-24T09:35:25;20.90;99.90
7846;DHT22;3968;51.424;6.788;2023-07-24T09:38:02;20.80;99.90
7846;DHT22;3968;51.424;6.788;2023-07-24T09:40:28;20.60;99.90
7846;DHT22;3968;51.424;6.788;2023-07-24T09:43:02;20.50;99.90
7846;DHT22;3968;51.424;6.788;2023-07-24T09:45:28;20.60;99.90
7846;DHT22;3968;51.424;6.788;2023-07-24T09:47:54;20.70;99.90
7846;DHT22;3968;51.424;6.788;2023-07-24T09:50:25;20.70;99.90
7846;DHT22;3968;51.424;6.788;2023-07-24T09:52:51;20.80;99.90
7846;DHT22;3968;51.424;6.788;2023-07-24T09:55:30;20.90;99.90
7846;DHT22;3968;51.424;6.788;2023-07-24T09:57:58;21.00;99.90
7846;DHT22;3968;51.424;6.788;2023-07-24T10:00:25;21.00;99.90
7846;DHT22;3968;51.424;6.788;2023-07-24T10:02:52;21.10;99.90
7846;DHT22;3968;51.424;6.788;2023-07-24T10:05:18;21.20;99.90
7846;DHT22;3968;51.424;6.788;2023-07-24T10:07:44;21.30;99.90
7846;DHT22;3968;51.424;6.788;2023-07-24T10:10:10;21.50;99.90
7846;DHT22;3968;51.424;6.788;2023-07-24T10:12:36;21.60;99.90
7846;DHT22;3968;51.424;6.788;2023-07-24T10:15:02;21.70;99.90
7846;DHT22;3968;51.424;6.788;2023-07-24T10:17:37;21.80;99.90
7846;DHT22;3968;51.424;6.788;2023-07-24T10:20:05;22.00;99.90
7846;DHT22;3968;51.424;6.788;2023-07-24T10:22:31;22.10;99.90
7846;DHT22;3968;51.424;6.788;2023-07-24T10:24:57;22.20;99.90
7846;DHT22;3968;51.424;6.788;2023-07-24T10:27:24;22.20;99.90
7846;DHT22;3968;51.424;6.788;2023-07-24T10:30:03;22.10;99.90
7846;DHT22;3968;51.424;6.788;2023-07-24T10:32:30;22.00;99.90
7846;DHT22;3968;51.424;6.788;2023-07-24T10:35:05;21.90;99.90
7846;DHT22;3968;51.424;6.788;2023-07-24T10:37:33;21.80;99.90
7846;DHT22;3968;51.424;6.788;2023-07-24T10:40:00;21.70;99.90
7846;DHT22;3968;51.424;6.788;2023-07-24T10:42:26;21.60;99.90
7846;DHT22;3968;51.424;6.788;2023-07-24T10:45:07;21.50;99.90
7846;DHT22;3968;51.424;6.788;2023-07-24T10:47:33;21.40;99.90
7846;DHT22;3968;51.424;6.788;2023-07-24T10:49:59;21.30;99.90
7846;DHT22;3968;51.424;6.788;2023-07-24T10:52:33;21.20;99.90
7846;DHT22;3968;51.424;6.788;2023-07-24T10:55:03;21.20;99.90
7846;DHT22;3968;51.424;6.788;2023-07-24T10:57:29;21.20;99.90
7846;DHT22;3968;51.424;6.788;2023-07-24T10:59:55;21.20;99.90
7846;DHT22;3968;51.424;6.788;2023-07-24T11:02:21;21.10;99.90
7846;DHT22;3968;51.424;6.788;2023-07-24T11:04:46;21.10;99.90
7846;DHT22;3968;51.424;6.788;2023-07-24T11:07:13;21.00;99.90
7846;DHT22;3968;51.424;6.788;2023-07-24T11:09:39;20.90;99.90
7846;DHT22;3968;51.424;6.788;2023-07-24T11:12:13;20.70;99.90
7846;DHT22;3968;51.424;6.788;2023-07-24T11:14:49;20.60;99.90
7846;DHT22;3968;51.424;6.788;2023-07-24T11:17:15;20.40;99.90
7846;DHT22;3968;51.424;6.788;2023-07-24T11:19:40;20.40;99.90
7846;DHT22;3968;51.424;6.788;2023-07-24T11:22:07;20.30;99.90
7846;DHT22;3968;51.424;6.788;2023-07-24T11:24:32;20.30;99.90
7846;DHT22;3968;51.424;6.788;2023-07-24T11:26:58;20.20;99.90
7846;DHT22;3968;51.424;6.788;2023-07-24T11:29:23;20.20;99.90
7846;DHT22;3968;51.424;6.788;2023-07-24T11:31:55;20.20;99.90
7846;DHT22;3968;51.424;6.788;2023-07-24T11:34:22;20.10;99.90
7846;DHT22;3968;51.424;6.788;2023-07-24T11:36:48;20.10;99.90
7846;DHT22;3968;51.424;6.788;2023-07-24T11:39:22;20.10;99.90
7846;DHT22;3968;51.424;6.788;2023-07-24T11:41:48;20.10;99.90
7846;DHT22;3968;51.424;6.788;2023-07-24T11:44:13;20.00;99.90
7846;DHT22;3968;51.424;6.788;2023-07-24T11:46:42;19.90;99.90
7846;DHT22;3968;51.424;6.788;2023-07-24T11:49:08;19.90;99.90
7846;DHT22;3968;51.424;6.788;2023-07-24T11:51:37;19.90;99.90
7846;DHT22;3968;51.424;6.788;2023-07-24T11:54:11;19.80;99.90
7846;DHT22;3968;51.424;6.788;2023-07-24T11:56:37;19.70;99.90
7846;DHT22;3968;51.424;6.788;2023-07-24T11:59:12;19.80;99.90
7846;DHT22;3968;51.424;6.788;2023-07-24T12:01:37;19.80;99.90
7846;DHT22;3968;51.424;6.788;2023-07-24T12:04:03;20.00;99.90
7846;DHT22;3968;51.424;6.788;2023-07-24T12:06:31;20.10;99.90
7846;DHT22;3968;51.424;6.788;2023-07-24T12:09:03;20.30;99.90
7846;DHT22;3968;51.424;6.788;2023-07-24T12:11:32;20.50;99.90
7846;DHT22;3968;51.424;6.788;2023-07-24T12:13:58;20.60;99.90
7846;DHT22;3968;51.424;6.788;2023-07-24T12:16:24;20.80;99.90
7846;DHT22;3968;51.424;6.788;2023-07-24T12:18:49;21.10;99.90
7846;DHT22;3968;51.424;6.788;2023-07-24T12:21:15;21.20;99.90
7846;DHT22;3968;51.424;6.788;2023-07-24T12:23:41;21.20;99.90
7846;DHT22;3968;51.424;6.788;2023-07-24T12:26:06;21.20;99.90
7846;DHT22;3968;51.424;6.788;2023-07-24T12:28:32;21.20;99.90
7846;DHT22;3968;51.424;6.788;2023-07-24T12:30:58;21.10;99.90
7846;DHT22;3968;51.424;6.788;2023-07-24T12:33:24;21.00;99.90
7846;DHT22;3968;51.424;6.788;2023-07-24T12:35:50;20.80;99.90
7846;DHT22;3968;51.424;6.788;2023-07-24T12:38:16;20.70;99.90
7846;DHT22;3968;51.424;6.788;2023-07-24T12:40:41;20.80;99.90
7846;DHT22;3968;51.424;6.788;2023-07-24T12:43:07;20.80;99.90
7846;DHT22;3968;51.424;6.788;2023-07-24T12:45:32;20.80;99.90
7846;DHT22;3968;51.424;6.788;2023-07-24T12:47:58;20.90;99.90
7846;DHT22;3968;51.424;6.788;2023-07-24T12:50:24;20.90;99.90
7846;DHT22;3968;51.424;6.788;2023-07-24T12:52:50;21.00;99.90
7846;DHT22;3968;51.424;6.788;2023-07-24T12:55:15;21.10;99.90
7846;DHT22;3968;51.424;6.788;2023-07-24T12:57:41;21.10;99.90
7846;DHT22;3968;51.424;6.788;2023-07-24T13:00:07;21.20;99.90
7846;DHT22;3968;51.424;6.788;2023-07-24T13:02:34;21.10;99.90
7846;DHT22;3968;51.424;6.788;2023-07-24T13:05:00;21.10;99.90
7846;DHT22;3968;51.424;6.788;2023-07-24T13:07:26;21.10;99.90
7846;DHT22;3968;51.424;6.788;2023-07-24T13:09:51;21.00;99.90
7846;DHT22;3968;51.424;6.788;2023-07-24T13:12:17;20.90;99.90
7846;DHT22;3968;51.424;6.788;2023-07-24T13:14:43;21.00;99.90
7846;DHT22;3968;51.424;6.788;2023-07-24T13:17:12;21.10;99.90
7846;DHT22;3968;51.424;6.788;2023-07-24T13:19:37;21.20;99.90
7846;DHT22;3968;51.424;6.788;2023-07-24T13:22:03;21.40;99.90
7846;DHT22;3968;51.424;6.788;2023-07-24T13:24:29;21.60;99.90
7846;DHT22;3968;51.424;6.788;2023-07-24T13:26:55;21.80;99.90
7846;DHT22;3968;51.424;6.788;2023-07-24T13:29:20;22.00;99.90
7846;DHT22;3968;51.424;6.788;2023-07-24T13:31:46;22.10;99.90
7846;DHT22;3968;51.424;6.788;2023-07-24T13:34:12;22.20;99.90
7846;DHT22;3968;51.424;6.788;2023-07-24T13:36:37;22.30;99.90
7846;DHT22;3968;51.424;6.788;2023-07-24T13:39:03;22.20;99.90
7846;DHT22;3968;51.424;6.788;2023-07-24T13:41:29;22.10;99.90
7846;DHT22;3968;51.424;6.788;2023-07-24T13:43:54;22.10;99.90
7846;DHT22;3968;51.424;6.788;2023-07-24T13:46:20;22.20;99.90
7846;DHT22;3968;51.424;6.788;2023-07-24T13:48:45;22.20;99.90
7846;DHT22;3968;51.424;6.788;2023-07-24T13:51:11;22.10;99.90
7846;DHT22;3968;51.424;6.788;2023-07-24T13:53:37;22.10;99.90
7846;DHT22;3968;51.424;6.788;2023-07-24T13:56:03;22.20;99.90
7846;DHT22;3968;51.424;6.788;2023-07-24T13:58:28;22.30;99.90
7846;DHT22;3968;51.424;6.788;2023-07-24T14:00:54;22.30;99.90
7846;DHT22;3968;51.424;6.788;2023-07-24T14:03:20;22.30;99.90
7846;DHT22;3968;51.424;6.788;2023-07-24T14:05:45;22.30;99.90
7846;DHT22;3968;51.424;6.788;2023-07-24T14:08:11;22.20;99.90
7846;DHT22;3968;51.424;6.788;2023-07-24T14:10:37;22.00;99.90
7846;DHT22;3968;51.424;6.788;2023-07-24T14:13:03;22.00;99.90
7846;DHT22;3968;51.424;6.788;2023-07-24T14:15:29;22.10;99.90
7846;DHT22;3968;51.424;6.788;2023-07-24T14:17:55;22.20;99.90
7846;DHT22;3968;51.424;6.788;2023-07-24T14:20:21;22.20;99.90
7846;DHT22;3968;51.424;6.788;2023-07-24T14:22:46;22.10;99.90
7846;DHT22;3968;51.424;6.788;2023-07-24T14:25:12;22.00;99.90
7846;DHT22;3968;51.424;6.788;2023-07-24T14:27:37;22.00;99.90
7846;DHT22;3968;51.424;6.788;2023-07-24T14:30:03;21.90;99.90
7846;DHT22;3968;51.424;6.788;2023-07-24T14:32:29;21.80;99.90
7846;DHT22;3968;51.424;6.788;2023-07-24T14:34:54;21.50;99.90
7846;DHT22;3968;51.424;6.788;2023-07-24T14:37:20;21.50;99.90
7846;DHT22;3968;51.424;6.788;2023-07-24T14:39:46;21.50;99.90
7846;DHT22;3968;51.424;6.788;2023-07-24T14:42:12;21.60;99.90
7846;DHT22;3968;51.424;6.788;2023-07-24T14:44:38;21.80;99.90
7846;DHT22;3968;51.424;6.788;2023-07-24T14:47:04;21.80;99.90
7846;DHT22;3968;51.424;6.788;2023-07-24T14:49:30;21.80;99.90
7846;DHT22;3968;51.424;6.788;2023-07-24T14:51:55;21.80;99.90
7846;DHT22;3968;51.424;6.788;2023-07-24T14:54:21;21.90;99.90
7846;DHT22;3968;51.424;6.788;2023-07-24T14:56:47;21.90;99.90
7846;DHT22;3968;51.424;6.788;2023-07-24T14:59:13;22.00;99.90
7846;DHT22;3968;51.424;6.788;2023-07-24T15:01:38;22.00;99.90
7846;DHT22;3968;51.424;6.788;2023-07-24T15:04:04;21.90;99.90
7846;DHT22;3968;51.424;6.788;2023-07-24T15:06:30;21.90;99.90
7846;DHT22;3968;51.424;6.788;2023-07-24T15:08:57;22.00;99.90
7846;DHT22;3968;51.424;6.788;2023-07-24T15:11:22;22.20;99.90
7846;DHT22;3968;51.424;6.788;2023-07-24T15:13:52;22.30;99.90
7846;DHT22;3968;51.424;6.788;2023-07-24T15:16:17;22.40;99.90
7846;DHT22;3968;51.424;6.788;2023-07-24T15:18:43;22.30;99.90
7846;DHT22;3968;51.424;6.788;2023-07-24T15:21:10;22.20;99.90
7846;DHT22;3968;51.424;6.788;2023-07-24T15:23:35;22.30;99.90
7846;DHT22;3968;51.424;6.788;2023-07-24T15:26:02;22.30;99.90
7846;DHT22;3968;51.424;6.788;2023-07-24T15:28:27;22.40;99.90
7846;DHT22;3968;51.424;6.788;2023-07-24T15:30:53;22.40;99.90
7846;DHT22;3968;51.424;6.788;2023-07-24T15:33:19;22.50;99.90
7846;DHT22;3968;51.424;6.788;2023-07-24T15:35:45;22.60;99.90
7846;DHT22;3968;51.424;6.788;2023-07-24T15:38:10;22.40;99.90
7846;DHT22;3968;51.424;6.788;2023-07-24T15:40:37;22.20;99.90
7846;DHT22;3968;51.424;6.788;2023-07-24T15:43:05;21.90;99.90
7846;DHT22;3968;51.424;6.788;2023-07-24T15:45:31;21.60;99.90
7846;DHT22;3968;51.424;6.788;2023-07-24T15:47:57;21.60;99.90
7846;DHT22;3968;51.424;6.788;2023-07-24T15:50:22;21.60;99.90
7846;DHT22;3968;51.424;6.788;2023-07-24T15:52:48;21.40;99.90
7846;DHT22;3968;51.424;6.788;2023-07-24T15:55:13;21.30;99.90
7846;DHT22;3968;51.424;6.788;2023-07-24T15:57:39;21.40;99.90
7846;DHT22;3968;51.424;6.788;2023-07-24T16:00:05;21.20;99.90